Time;durP1;ratioP1;P1;durP2;ratioP2;P2;SDS_P1;SDS_P2;PMS_P1;PMS_P2;Temp;Humidity;BMP_temperature;BMP_pressure;BME280_temperature;BME280_humidity;BME280_pressure;Samples;Min_cycle;Max_cycle;Signal;HPM_P1;HPM_P2
2020/12/01 00:02:19;;;;;;;;;61.00;48.00;;;;;11.97;56.82;98991.03;4915844;28;102833;-82
2020/12/01 00:04:45;;;;;;;;;62.00;47.25;;;;;11.98;56.83;98997.28;4935038;28;102223;-82
2020/12/01 00:07:12;;;;;;;;;61.25;48.50;;;;;11.96;56.55;98996.66;4943879;28;104229;-82
2020/12/01 00:09:39;;;;;;;;;63.00;48.00;;;;;11.93;56.85;98994.34;4944208;28;104282;-82
2020/12/01 00:12:06;;;;;;;;;63.50;48.25;;;;;11.90;56.82;98978.47;4923948;28;102794;-82
2020/12/01 00:14:32;;;;;;;;;65.00;48.00;;;;;11.89;56.89;98991.19;4952725;28;103415;-82
2020/12/01 00:17:00;;;;;;;;;67.00;49.00;;;;;11.87;56.70;98979.72;4947242;28;102294;-82
2020/12/01 00:19:27;;;;;;;;;65.50;48.25;;;;;11.86;56.72;98974.50;4952831;28;104259;-82
2020/12/01 00:21:53;;;;;;;;;61.75;48.25;;;;;11.86;56.41;98982.63;4937566;28;102677;-82
2020/12/01 00:24:20;;;;;;;;;59.75;48.25;;;;;11.86;56.27;98982.63;4922315;28;104101;-82
2020/12/01 00:26:47;;;;;;;;;65.75;50.00;;;;;11.83;56.58;98983.88;4951781;28;102503;-82
2020/12/01 00:29:13;;;;;;;;;60.50;47.50;;;;;11.83;56.61;98977.63;4945260;28;104188;-82
2020/12/01 00:31:40;;;;;;;;;61.75;46.50;;;;;11.80;56.62;98978.00;4938889;28;103156;-82
2020/12/01 00:34:09;;;;;;;;;64.25;48.00;;;;;11.79;57.08;98974.47;4942804;28;102858;-82
2020/12/01 00:36:35;;;;;;;;;62.25;47.00;;;;;11.80;56.79;98976.13;4934615;28;102835;-82
2020/12/01 00:39:04;;;;;;;;;60.00;48.00;;;;;11.79;56.68;98969.06;4940956;28;104324;-82
2020/12/01 00:41:31;;;;;;;;;57.75;45.50;;;;;11.78;56.54;98969.25;4934630;28;103296;-82
2020/12/01 00:43:58;;;;;;;;;60.25;47.25;;;;;11.76;56.79;98965.88;4953619;28;102681;-82
2020/12/01 00:46:25;;;;;;;;;55.25;44.00;;;;;11.76;57.09;98971.31;4933542;28;102551;-82
2020/12/01 00:48:51;;;;;;;;;54.00;43.00;;;;;11.73;56.85;98960.88;4933279;28;104009;-82
2020/12/01 00:51:18;;;;;;;;;58.75;46.75;;;;;11.72;56.85;98959.16;4940199;28;102692;-82
2020/12/01 00:53:45;;;;;;;;;57.25;45.00;;;;;11.72;56.54;98959.16;4938706;28;103836;-82
2020/12/01 00:56:12;;;;;;;;;59.50;45.25;;;;;11.69;56.81;98954.16;4942524;28;103071;-82
2020/12/01 00:58:38;;;;;;;;;56.00;44.75;;;;;11.67;57.28;98945.38;4950412;28;104006;-82
2020/12/01 01:01:05;;;;;;;;;57.75;45.75;;;;;11.67;56.79;98956.22;4931289;28;104492;-82
2020/12/01 01:03:32;;;;;;;;;51.75;39.75;;;;;11.66;56.40;98955.41;4947051;28;102550;-82
2020/12/01 01:05:58;;;;;;;;;56.75;44.00;;;;;11.64;56.30;98957.47;4946093;28;103673;-82
2020/12/01 01:08:25;;;;;;;;;54.25;41.75;;;;;11.63;56.84;98953.06;4948907;28;104040;-82
2020/12/01 01:10:53;;;;;;;;;57.75;44.00;;;;;11.62;56.93;98941.41;4933503;28;102572;-82
2020/12/01 01:13:20;;;;;;;;;57.25;45.25;;;;;11.61;56.74;98944.31;4930051;28;103028;-82
2020/12/01 01:15:47;;;;;;;;;57.25;42.75;;;;;11.60;56.41;98946.19;4938483;28;102559;-82
2020/12/01 01:18:14;;;;;;;;;58.00;45.25;;;;;11.59;57.04;98938.25;4941142;28;104135;-82
2020/12/01 01:20:41;;;;;;;;;56.00;42.75;;;;;11.57;56.61;98943.84;4958314;28;102746;-82
2020/12/01 01:23:08;;;;;;;;;52.75;42.25;;;;;11.55;56.72;98937.81;4941205;28;102476;-83
2020/12/01 01:25:34;;;;;;;;;60.00;43.50;;;;;11.54;56.79;98938.84;4934130;28;102984;-82
2020/12/01 01:28:01;;;;;;;;;54.25;42.00;;;;;11.53;56.80;98939.03;4917331;28;104575;-82
2020/12/01 01:30:27;;;;;;;;;57.25;44.00;;;;;11.52;56.50;98935.53;4923714;28;104200;-82
2020/12/01 01:32:54;;;;;;;;;53.25;40.00;;;;;11.52;56.55;98932.81;4928816;28;102405;-82
2020/12/01 01:35:21;;;;;;;;;55.25;44.75;;;;;11.52;56.71;98932.81;4947809;28;102221;-82
2020/12/01 01:37:47;;;;;;;;;52.00;38.25;;;;;11.50;56.22;98925.91;4946947;28;104068;-82
2020/12/01 01:40:20;;;;;;;;;53.00;42.00;;;;;11.51;56.83;98931.13;4932215;28;103722;-82
2020/12/01 01:42:47;;;;;;;;;51.00;40.50;;;;;11.48;56.49;98930.72;4943430;28;103824;-82
2020/12/01 01:45:14;;;;;;;;;52.00;42.00;;;;;11.47;56.76;98929.88;4942647;28;104093;-82
2020/12/01 01:47:40;;;;;;;;;50.50;42.25;;;;;11.46;56.80;98925.47;4943459;28;104281;-82
2020/12/01 01:50:16;;;;;;;;;52.50;39.00;;;;;11.44;56.64;98919.41;4934137;28;102630;-82
2020/12/01 01:52:44;;;;;;;;;50.50;41.75;;;;;11.44;56.65;98924.81;4882507;28;104212;-82
2020/12/01 01:55:13;;;;;;;;;49.50;39.00;;;;;11.44;56.56;98919.41;4914022;28;105042;-82
2020/12/01 01:57:45;;;;;;;;;48.50;38.50;;;;;11.43;56.49;98917.75;4929678;28;104401;-82
2020/12/01 02:00:24;;;;;;;;;50.50;40.25;;;;;11.42;56.73;98926.06;4908202;28;102645;-82
2020/12/01 02:02:52;;;;;;;;;50.50;38.50;;;;;11.42;56.60;98917.94;4924210;28;102896;-82
2020/12/01 02:05:18;;;;;;;;;53.75;43.25;;;;;11.40;56.40;98912.72;4934593;28;102227;-82
2020/12/01 02:07:45;;;;;;;;;46.00;39.50;;;;;11.37;56.94;98907.72;4927386;28;104129;-82
2020/12/01 02:10:12;;;;;;;;;50.50;40.00;;;;;11.38;56.71;98913.97;4943329;28;103657;-82
2020/12/01 02:12:39;;;;;;;;;43.75;35.25;;;;;11.38;56.77;98917.53;4927595;28;102316;-82
2020/12/01 02:15:08;;;;;;;;;53.25;40.50;;;;;11.36;56.57;98910.63;4927575;28;102772;-82
2020/12/01 02:17:37;;;;;;;;;47.00;36.25;;;;;11.34;56.70;98921.66;4952215;28;107608;-82
2020/12/01 02:20:13;;;;;;;;;50.50;39.50;;;;;11.33;56.60;98917.28;4937445;28;102742;-82
2020/12/01 02:22:43;;;;;;;;;53.75;38.75;;;;;11.31;56.54;98915.78;4944660;28;104619;-82
2020/12/01 02:25:10;;;;;;;;;50.00;39.50;;;;;11.31;56.65;98918.50;4940656;28;103262;-82
2020/12/01 02:27:37;;;;;;;;;48.50;37.75;;;;;11.27;56.80;98917.22;4953494;28;107503;-82
2020/12/01 02:30:08;;;;;;;;;47.00;37.50;;;;;11.27;56.59;98904.50;4949211;28;103003;-82
2020/12/01 02:32:35;;;;;;;;;47.25;37.25;;;;;11.28;56.80;98910.78;4950341;28;102561;-82
2020/12/01 02:35:04;;;;;;;;;48.25;39.00;;;;;11.30;56.60;98912.22;4930129;28;103762;-82
2020/12/01 02:37:31;;;;;;;;;45.00;36.00;;;;;11.29;56.59;98909.75;4951603;28;103886;-82
2020/12/01 02:39:59;;;;;;;;;46.00;39.00;;;;;11.28;56.65;98908.06;4920392;28;103100;-82
2020/12/01 02:42:27;;;;;;;;;45.50;38.50;;;;;11.24;56.62;98907.63;4903589;28;104571;-82
2020/12/01 02:44:55;;;;;;;;;47.00;38.25;;;;;11.23;56.48;98916.78;4910301;28;103576;-82
2020/12/01 02:47:38;;;;;;;;;51.50;37.00;;;;;11.21;56.75;98901.78;4914972;28;109352;-82
2020/12/01 02:50:06;;;;;;;;;44.50;37.00;;;;;11.22;56.59;98906.97;4926710;28;102233;-82
2020/12/01 02:52:32;;;;;;;;;46.75;37.00;;;;;11.22;56.86;98903.44;4928622;28;103745;-82
2020/12/01 02:54:59;;;;;;;;;43.75;36.50;;;;;11.19;56.50;98900.09;4948306;28;103338;-82
2020/12/01 02:57:25;;;;;;;;;45.00;35.50;;;;;11.18;56.34;98901.13;4937061;28;104108;-82
2020/12/01 02:59:52;;;;;;;;;37.75;33.75;;;;;11.18;56.50;98898.44;4941597;28;103775;-82
2020/12/01 03:02:19;;;;;;;;;36.50;33.00;;;;;11.19;56.69;98904.69;4936272;28;102382;-82
2020/12/01 03:04:46;;;;;;;;;39.75;35.00;;;;;11.17;56.58;98895.91;4939854;28;102449;-82
2020/12/01 03:07:12;;;;;;;;;45.25;35.75;;;;;11.16;56.80;98899.66;4923680;28;104369;-82
2020/12/01 03:09:39;;;;;;;;;43.00;33.75;;;;;11.15;56.49;98895.28;4916331;28;102547;-82
2020/12/01 03:12:06;;;;;;;;;35.50;31.25;;;;;11.15;56.52;98893.41;4947031;28;106377;-82
2020/12/01 03:14:33;;;;;;;;;40.75;34.75;;;;;11.14;56.51;98890.91;4942166;28;102525;-82
2020/12/01 03:16:59;;;;;;;;;43.25;33.00;;;;;11.14;56.29;98893.59;4924637;28;103774;-82
2020/12/01 03:19:26;;;;;;;;;42.50;35.25;;;;;11.13;56.40;98886.50;4949869;28;102809;-82
2020/12/01 03:21:55;;;;;;;;;40.50;33.50;;;;;11.11;56.30;98885.88;4938452;28;103998;-82
2020/12/01 03:24:22;;;;;;;;;44.50;34.00;;;;;11.10;56.54;98881.50;4946953;28;104283;-82
2020/12/01 03:26:49;;;;;;;;;44.75;32.50;;;;;11.09;56.59;98887.94;4949734;28;104086;-82
2020/12/01 03:29:15;;;;;;;;;39.75;33.50;;;;;11.09;56.47;98885.25;4949123;28;103080;-82
2020/12/01 03:31:42;;;;;;;;;46.75;35.25;;;;;11.09;56.43;98887.94;4943710;28;103196;-82
2020/12/01 03:34:09;;;;;;;;;39.00;35.50;;;;;11.08;57.10;98888.97;4952196;28;103562;-82
2020/12/01 03:36:36;;;;;;;;;40.00;33.50;;;;;11.09;56.48;98885.25;4957783;28;109009;-81
2020/12/01 03:39:03;;;;;;;;;40.75;33.50;;;;;11.06;56.70;98885.63;4942040;28;102841;-82
2020/12/01 03:41:30;;;;;;;;;38.50;32.25;;;;;11.05;56.25;98886.66;4938941;28;102689;-82
2020/12/01 03:43:56;;;;;;;;;33.25;32.50;;;;;11.05;56.65;98882.09;4949846;27;102156;-82
2020/12/01 03:46:23;;;;;;;;;46.50;34.75;;;;;11.05;56.56;98892.06;4935530;28;105139;-82
2020/12/01 03:48:50;;;;;;;;;35.75;30.75;;;;;11.04;56.25;98887.69;4931032;28;104353;-82
2020/12/01 03:51:16;;;;;;;;;39.75;33.75;;;;;11.02;56.33;98882.50;4955964;28;102549;-82
2020/12/01 03:53:43;;;;;;;;;34.00;30.00;;;;;11.04;56.24;98879.56;4941613;28;103088;-82
2020/12/01 03:56:10;;;;;;;;;39.75;31.00;;;;;11.05;56.35;98883.97;4920674;28;104421;-82
2020/12/01 03:58:36;;;;;;;;;38.00;32.25;;;;;11.03;56.44;98877.94;4909922;28;104292;-82
2020/12/01 04:01:03;;;;;;;;;40.50;34.50;;;;;11.02;56.31;98873.53;4930893;28;104764;-82
2020/12/01 04:03:30;;;;;;;;;35.50;31.00;;;;;11.01;56.36;98878.13;4928735;28;104373;-82
2020/12/01 04:05:57;;;;;;;;;36.75;32.50;;;;;11.01;56.13;98874.56;4933940;28;104245;-82
2020/12/01 04:08:24;;;;;;;;;46.25;35.50;;;;;11.00;56.34;98868.31;4946068;28;103440;-82
2020/12/01 04:10:50;;;;;;;;;32.75;29.00;;;;;10.99;56.13;98865.78;4932497;28;102726;-82
2020/12/01 04:13:17;;;;;;;;;33.50;28.00;;;;;10.98;56.50;98869.56;4946043;28;102227;-82
2020/12/01 04:15:43;;;;;;;;;35.75;27.75;;;;;10.98;56.28;98862.28;4956100;28;108463;-82
2020/12/01 04:18:10;;;;;;;;;32.25;27.25;;;;;10.98;56.31;98859.56;4953583;28;102220;-82
2020/12/01 04:20:37;;;;;;;;;35.25;27.75;;;;;11.02;55.91;98865.44;4936630;28;102758;-81
2020/12/01 04:23:04;;;;;;;;;35.25;29.75;;;;;11.02;55.93;98863.56;4951825;28;102505;-82
2020/12/01 04:25:31;;;;;;;;;29.00;26.75;;;;;11.05;55.86;98865.03;4951129;28;104072;-82
2020/12/01 04:27:57;;;;;;;;;33.25;29.50;;;;;11.09;55.54;98852.75;4936504;28;102118;-82
2020/12/01 04:30:24;;;;;;;;;30.50;26.00;;;;;11.11;55.50;98858.81;4947310;28;104783;-82
2020/12/01 04:32:52;;;;;;;;;40.50;30.25;;;;;11.09;55.70;98847.34;4948494;28;102530;-82
2020/12/01 04:35:23;;;;;;;;;28.25;26.00;;;;;11.13;55.34;98851.31;4934207;28;104086;-82
2020/12/01 04:37:50;;;;;;;;;32.50;27.25;;;;;11.13;55.11;98845.91;4918088;28;104435;-82
2020/12/01 04:40:19;;;;;;;;;35.75;30.75;;;;;11.13;55.21;98851.31;4957871;28;102375;-82
2020/12/01 04:42:51;;;;;;;;;38.75;30.00;;;;;11.12;55.47;98844.28;4899820;28;102508;-82
2020/12/01 04:45:17;;;;;;;;;30.00;25.50;;;;;11.11;55.52;98838.03;4920950;28;104383;-82
2020/12/01 04:47:53;;;;;;;;;29.00;25.50;;;;;11.11;55.29;98842.59;4928794;28;102518;-82
2020/12/01 04:50:33;;;;;;;;;29.75;29.00;;;;;11.11;55.22;98837.19;4940901;28;103428;-82
2020/12/01 04:53:20;;;;;;;;;32.00;25.75;;;;;11.11;55.40;98838.03;4942608;28;102580;-82
2020/12/01 04:56:24;;;;;;;;;29.25;24.25;;;;;11.08;55.43;98837.56;4797216;28;108787;-82
2020/12/01 04:58:58;;;;;;;;;23.50;23.00;;;;;11.11;55.16;98834.47;4872264;28;104161;-82
2020/12/01 05:01:36;;;;;;;;;31.50;25.00;;;;;11.12;55.14;98836.97;4937693;28;102617;-82
2020/12/01 05:04:29;;;;;;;;;30.00;24.00;;;;;11.09;55.46;98825.69;4815436;28;102892;-82
2020/12/01 05:07:30;;;;;;;;;31.00;28.75;;;;;11.06;55.41;98832.34;4917649;28;106428;-82
2020/12/01 05:09:57;;;;;;;;;28.75;26.25;;;;;11.05;55.53;98835.25;4842245;28;103542;-82
2020/12/01 05:12:31;;;;;;;;;27.00;25.75;;;;;11.03;55.62;98831.94;4912139;28;102620;-82
2020/12/01 05:15:01;;;;;;;;;26.25;23.75;;;;;11.01;55.30;98828.56;4947806;28;102930;-82
2020/12/01 05:17:47;;;;;;;;;24.25;21.75;;;;;11.00;55.63;98830.44;4926123;28;103614;-82
2020/12/01 05:20:13;;;;;;;;;30.75;25.00;;;;;10.99;55.56;98825.22;4945504;28;103309;-82
2020/12/01 05:22:47;;;;;;;;;27.75;23.25;;;;;10.98;55.56;98831.69;4953311;28;102315;-82
2020/12/01 05:25:19;;;;;;;;;28.00;27.00;;;;;10.96;55.52;98820.22;4930286;28;102570;-82
2020/12/01 05:27:46;;;;;;;;;32.75;26.75;;;;;10.96;55.26;98823.75;4930462;28;104105;-82
2020/12/01 05:30:20;;;;;;;;;25.00;20.25;;;;;10.96;55.54;98828.31;4924426;28;102661;-80
2020/12/01 05:32:58;;;;;;;;;35.50;28.00;;;;;10.95;55.21;98823.94;4931756;28;104028;-79
2020/12/01 05:35:30;;;;;;;;;29.50;25.25;;;;;10.97;55.39;98824.59;4937350;28;102213;-79
2020/12/01 05:38:05;;;;;;;;;29.25;26.50;;;;;10.95;55.40;98813.97;4927770;28;104285;-79
2020/12/01 05:40:33;;;;;;;;;28.75;24.25;;;;;10.94;54.57;98819.59;4925384;28;102535;-79
2020/12/01 05:43:01;;;;;;;;;29.75;27.50;;;;;10.94;54.67;98812.28;4950161;28;102644;-79
2020/12/01 05:45:31;;;;;;;;;29.00;27.75;;;;;10.94;54.74;98814.19;4953958;28;103452;-79
2020/12/01 05:48:39;;;;;;;;;29.25;24.00;;;;;10.91;54.68;98814.56;4949457;28;104082;-80
2020/12/01 05:51:12;;;;;;;;;28.75;23.25;;;;;10.91;54.90;98817.25;4822687;28;102516;-79
2020/12/01 05:53:40;;;;;;;;;33.75;28.75;;;;;10.92;55.05;98821.63;4929042;28;102474;-79
2020/12/01 05:56:14;;;;;;;;;30.50;25.75;;;;;10.88;54.70;98817.66;4951885;28;106284;-80
2020/12/01 05:58:47;;;;;;;;;32.25;28.50;;;;;10.87;55.03;98818.69;4943253;28;109101;-80
2020/12/01 06:01:14;;;;;;;;;22.75;21.50;;;;;10.87;55.06;98824.09;4928759;28;104008;-79
2020/12/01 06:04:07;;;;;;;;;24.25;21.00;;;;;10.84;55.19;98824.50;4893772;28;102593;-79
2020/12/01 06:06:57;;;;;;;;;25.00;22.50;;;;;10.83;55.27;98820.97;4887632;28;102792;-79
2020/12/01 06:09:39;;;;;;;;;30.00;26.75;;;;;10.81;54.79;98822.19;4810973;28;109489;-79
2020/12/01 06:12:46;;;;;;;;;27.00;24.00;;;;;10.81;55.33;98825.72;4934366;28;102659;-79
2020/12/01 06:15:15;;;;;;;;;26.75;23.75;;;;;10.79;55.21;98821.56;4837835;28;102489;-79
2020/12/01 06:17:50;;;;;;;;;25.50;21.75;;;;;10.80;55.10;98828.63;4915081;28;102613;-79
2020/12/01 06:20:20;;;;;;;;;29.25;25.75;;;;;10.81;55.12;98835.72;4930478;28;106903;-79
2020/12/01 06:23:18;;;;;;;;;30.00;22.75;;;;;10.78;55.02;98833.41;4940081;28;102348;-79
2020/12/01 06:25:48;;;;;;;;;24.00;21.00;;;;;10.76;55.22;98836.31;4827759;28;105325;-79
2020/12/01 06:28:14;;;;;;;;;27.00;22.50;;;;;10.76;55.22;98839.03;4939539;28;104205;-79
2020/12/01 06:30:59;;;;;;;;;21.00;19.25;;;;;10.76;55.23;98830.06;4952906;28;104135;-79
2020/12/01 06:34:02;;;;;;;;;24.75;20.25;;;;;10.74;55.40;98831.09;4918486;28;103402;-79
2020/12/01 06:37:23;;;;;;;;;22.25;21.00;;;;;10.74;55.33;98835.66;4859921;28;102543;-79
2020/12/01 06:39:52;;;;;;;;;27.75;24.75;;;;;10.73;55.22;98834.81;4875339;28;103058;-79
2020/12/01 06:43:05;;;;;;;;;22.25;19.00;;;;;10.73;55.36;98834.81;4937554;28;104006;-79
2020/12/01 06:45:41;;;;;;;;;23.75;22.00;;;;;10.73;55.34;98831.28;4873115;28;102713;-79
2020/12/01 06:48:16;;;;;;;;;22.75;21.50;;;;;10.72;55.45;98827.72;4912220;28;103718;-79
2020/12/01 06:50:47;;;;;;;;;27.75;21.75;;;;;10.72;55.44;98829.59;4939212;28;102832;-79
2020/12/01 06:53:26;;;;;;;;;25.50;20.50;;;;;10.71;55.67;98823.38;4922034;28;103998;-80
2020/12/01 06:56:05;;;;;;;;;23.50;20.25;;;;;10.69;55.35;98822.72;4951126;28;102248;-79
2020/12/01 06:58:36;;;;;;;;;20.75;19.25;;;;;10.71;55.20;98820.69;4957367;28;102125;-79
2020/12/01 07:01:22;;;;;;;;;26.00;21.50;;;;;10.72;55.26;98821.50;4956511;28;106095;-79
2020/12/01 07:04:05;;;;;;;;;28.25;20.00;;;;;10.69;55.32;98817.31;4842546;28;108795;-79
2020/12/01 07:06:32;;;;;;;;;21.50;19.25;;;;;10.68;55.20;98821.06;4939719;28;102768;-79
2020/12/01 07:09:10;;;;;;;;;23.50;19.75;;;;;10.67;55.46;98830.19;4943727;28;103987;-79
2020/12/01 07:11:54;;;;;;;;;19.75;17.50;;;;;10.66;55.22;98812.31;4951244;28;102425;-79
2020/12/01 07:14:31;;;;;;;;;21.50;18.50;;;;;10.69;55.25;98816.47;4856630;28;108644;-79
2020/12/01 07:16:58;;;;;;;;;28.00;20.25;;;;;10.69;55.35;98821.88;4940511;28;103556;-79
2020/12/01 07:20:15;;;;;;;;;22.50;16.75;;;;;10.67;55.43;98824.78;4944360;28;103792;-79
2020/12/01 07:23:06;;;;;;;;;22.75;19.25;;;;;10.67;55.25;98821.28;4873210;28;103798;-79
2020/12/01 07:25:38;;;;;;;;;22.50;20.50;;;;;10.68;55.21;98828.31;4953770;28;103283;-79
2020/12/01 07:28:07;;;;;;;;;17.00;16.00;;;;;10.69;55.47;98824.59;4940438;28;102381;-79
2020/12/01 07:30:51;;;;;;;;;20.75;17.75;;;;;10.67;55.31;98822.06;4946771;28;102244;-79
2020/12/01 07:33:27;;;;;;;;;22.25;21.50;;;;;10.68;55.25;98831.03;4894487;28;102643;-79
2020/12/01 07:36:12;;;;;;;;;19.00;15.50;;;;;10.67;55.31;98824.78;4940701;28;103291;-79
2020/12/01 07:39:21;;;;;;;;;21.25;16.50;;;;;10.68;55.46;98831.03;4885920;28;102306;-79
2020/12/01 07:41:55;;;;;;;;;18.50;16.25;;;;;10.68;55.19;98837.28;4877388;28;102354;-79
2020/12/01 07:44:24;;;;;;;;;21.50;18.50;;;;;10.67;55.52;98841.00;4946348;28;107946;-79
2020/12/01 07:47:06;;;;;;;;;19.75;16.25;;;;;10.67;55.47;98827.47;4932163;28;104322;-79
2020/12/01 07:49:33;;;;;;;;;20.25;19.25;;;;;10.68;55.36;98829.16;4964312;28;102415;-79
2020/12/01 07:52:11;;;;;;;;;23.00;21.00;;;;;10.68;55.03;98825.63;4963557;28;102219;-79
2020/12/01 07:54:38;;;;;;;;;16.00;15.50;;;;;10.68;55.05;98828.31;4942343;28;102445;-79
2020/12/01 07:57:13;;;;;;;;;19.50;16.75;;;;;10.68;55.39;98842.69;4945714;28;104229;-79
2020/12/01 07:59:41;;;;;;;;;22.75;19.25;;;;;10.69;55.14;98838.13;4961034;28;102068;-79
2020/12/01 08:02:08;;;;;;;;;21.25;20.25;;;;;10.67;55.33;98846.41;4967636;28;102271;-79
2020/12/01 08:04:34;;;;;;;;;19.00;16.00;;;;;10.68;55.11;98841.84;4959587;28;102290;-79
2020/12/01 08:07:02;;;;;;;;;22.75;19.75;;;;;10.68;55.02;98839.97;4961171;28;104068;-79
2020/12/01 08:09:29;;;;;;;;;16.00;14.25;;;;;10.68;55.00;98847.25;4969690;28;102387;-79
2020/12/01 08:12:00;;;;;;;;;20.00;17.00;;;;;10.69;54.86;98843.53;4947457;28;102833;-79
2020/12/01 08:14:26;;;;;;;;;19.50;15.00;;;;;10.67;54.97;98846.41;4927959;28;107550;-79
2020/12/01 08:17:10;;;;;;;;;23.25;17.25;;;;;10.69;55.15;98849.78;4965217;28;104040;-79
2020/12/01 08:19:37;;;;;;;;;19.75;14.75;;;;;10.69;55.13;98849.78;4954808;28;102099;-79
2020/12/01 08:22:05;;;;;;;;;17.50;15.50;;;;;10.69;55.29;98852.47;4945183;28;103219;-79
2020/12/01 08:24:32;;;;;;;;;19.50;16.75;;;;;10.69;54.74;98849.78;4942582;28;104006;-79
2020/12/01 08:27:05;;;;;;;;;20.00;14.00;;;;;10.70;55.15;98864.13;4948483;28;104132;-79
2020/12/01 08:29:34;;;;;;;;;18.00;16.50;;;;;10.69;54.96;98859.75;4932816;28;102393;-79
2020/12/01 08:32:34;;;;;;;;;18.25;16.25;;;;;10.71;54.93;98857.69;4911652;28;102326;-79
2020/12/01 08:35:17;;;;;;;;;18.00;14.75;;;;;10.72;55.10;98873.72;4812557;28;102243;-79
2020/12/01 08:38:03;;;;;;;;;19.25;15.25;;;;;10.71;54.86;98865.81;4945355;28;109019;-79
2020/12/01 08:40:42;;;;;;;;;18.25;14.00;;;;;10.69;55.21;98866.00;4952048;28;102139;-79
2020/12/01 08:43:39;;;;;;;;;18.25;14.25;;;;;10.68;54.85;98864.31;4932697;28;102852;-79
2020/12/01 08:46:11;;;;;;;;;13.00;12.75;;;;;10.71;54.83;98868.53;4887768;28;102272;-79
2020/12/01 08:48:47;;;;;;;;;17.50;15.00;;;;;10.71;54.94;98868.53;4917710;28;109019;-79
2020/12/01 08:51:22;;;;;;;;;17.75;15.75;;;;;10.71;55.08;98869.34;4964146;28;103583;-79
2020/12/01 08:54:04;;;;;;;;;18.50;17.75;;;;;10.72;55.08;98868.31;4948853;28;102382;-79
2020/12/01 08:56:39;;;;;;;;;11.25;11.00;;;;;10.73;54.71;98871.84;4962555;28;102358;-79
2020/12/01 08:59:06;;;;;;;;;19.50;16.00;;;;;10.73;55.09;98864.56;4929789;28;104182;-79
2020/12/01 09:01:40;;;;;;;;;17.75;13.25;;;;;10.74;54.80;98868.97;4933637;28;104564;-79
2020/12/01 09:04:20;;;;;;;;;19.25;16.75;;;;;10.77;54.78;98866.88;4963500;28;102693;-79
2020/12/01 09:06:47;;;;;;;;;14.00;13.00;;;;;10.80;54.82;98877.31;4902594;28;103747;-80
2020/12/01 09:09:29;;;;;;;;;13.75;11.75;;;;;10.80;54.54;98863.81;4932743;28;105730;-79
2020/12/01 09:12:13;;;;;;;;;17.75;16.00;;;;;10.83;54.50;98858.00;4958717;28;104564;-79
2020/12/01 09:23:05;;;;;;;;;11.50;11.50;;;;;10.88;54.31;98866.34;4876240;28;102602;-80
2020/12/01 09:25:35;;;;;;;;;13.00;12.50;;;;;10.89;54.26;98862.63;4944525;28;102212;-79
2020/12/01 09:28:09;;;;;;;;;15.75;13.00;;;;;10.90;54.38;98869.69;4948632;28;103002;-79
2020/12/01 09:30:37;;;;;;;;;18.25;14.00;;;;;10.89;54.06;98860.75;4939993;28;107331;-79
2020/12/01 09:33:05;;;;;;;;;14.50;13.50;;;;;10.90;54.33;98873.22;4949338;28;102321;-80
2020/12/01 09:35:32;;;;;;;;;14.50;13.75;;;;;10.89;54.31;98866.16;4961134;28;103070;-80
2020/12/01 09:38:00;;;;;;;;;16.25;11.75;;;;;10.93;54.16;98855.78;4962602;28;102461;-79
2020/12/01 09:40:27;;;;;;;;;16.00;13.75;;;;;10.92;53.88;98864.94;4961831;28;104508;-80
2020/12/01 09:42:58;;;;;;;;;15.75;11.50;;;;;10.92;53.90;98854.09;4965800;28;102254;-80
2020/12/01 09:45:27;;;;;;;;;14.50;12.00;;;;;10.93;54.08;98858.50;4968042;28;102484;-80
2020/12/01 09:48:13;;;;;;;;;16.75;15.00;;;;;10.93;53.98;98850.38;4962743;28;102209;-80
2020/12/01 09:50:40;;;;;;;;;13.00;10.75;;;;;10.91;53.99;98841.59;4959755;28;108773;-80
2020/12/01 09:53:28;;;;;;;;;11.50;11.00;;;;;10.92;53.94;98848.69;4964630;28;102094;-79
2020/12/01 10:09:34;;;;;;;;;12.25;8.25;;;;;10.99;54.25;98836.03;4906838;28;102690;-80
2020/12/01 10:36:18;;;;;;;;;12.25;11.25;;;;;11.01;54.24;98818.59;4954478;28;102621;-80
2020/12/01 10:38:45;;;;;;;;;11.50;10.75;;;;;11.02;54.27;98822.13;4957057;28;102370;-80
2020/12/01 10:41:11;;;;;;;;;12.50;11.25;;;;;11.02;54.00;98820.25;4971922;28;102422;-79
2020/12/01 10:43:38;;;;;;;;;13.75;11.25;;;;;11.05;53.98;98816.31;4955261;28;108926;-80
2020/12/01 10:46:05;;;;;;;;;10.50;10.00;;;;;11.07;53.84;98822.38;4955317;28;102158;-80
2020/12/01 10:48:32;;;;;;;;;12.00;11.50;;;;;11.10;53.74;98828.22;4965601;28;102272;-79
2020/12/01 10:50:59;;;;;;;;;13.50;11.25;;;;;11.11;53.63;98826.34;4968538;28;102054;-79
2020/12/01 10:53:25;;;;;;;;;11.25;11.00;;;;;11.14;53.69;98820.53;4960166;28;104049;-80
2020/12/01 10:55:52;;;;;;;;;11.75;10.50;;;;;11.15;53.86;98827.63;4961270;28;102377;-80
2020/12/01 10:58:19;;;;;;;;;10.00;8.00;;;;;11.17;53.73;98825.53;4967835;28;102203;-80
2020/12/01 11:00:45;;;;;;;;;11.25;11.00;;;;;11.18;53.93;98824.50;4962398;28;102450;-80
2020/12/01 11:03:12;;;;;;;;;10.25;10.00;;;;;11.21;54.07;98826.00;4960367;28;104012;-80
2020/12/01 11:05:38;;;;;;;;;9.25;7.25;;;;;11.21;53.81;98826.84;4964044;28;102216;-79
2020/12/01 11:08:05;;;;;;;;;13.00;10.00;;;;;11.23;53.96;98824.75;4968678;28;102433;-80
2020/12/01 11:10:32;;;;;;;;;13.25;10.75;;;;;11.24;53.54;98817.47;4956731;28;103778;-80
2020/12/01 11:12:58;;;;;;;;;14.00;12.50;;;;;11.24;53.16;98825.59;4962257;28;104058;-80
2020/12/01 11:15:25;;;;;;;;;14.25;11.00;;;;;11.24;53.40;98815.59;4967794;28;102534;-80
2020/12/01 11:17:52;;;;;;;;;12.00;10.25;;;;;11.26;53.45;98810.00;4963311;28;102401;-80
2020/12/01 11:20:19;;;;;;;;;10.00;8.75;;;;;11.26;53.32;98807.28;4963011;28;102178;-80
2020/12/01 11:22:47;;;;;;;;;15.25;11.00;;;;;11.29;53.41;98815.84;4966352;28;104081;-79
2020/12/01 11:25:14;;;;;;;;;11.25;10.50;;;;;11.29;53.45;98815.84;4928782;28;102469;-80
2020/12/01 11:27:40;;;;;;;;;11.50;10.00;;;;;11.30;53.32;98812.06;4962665;28;102714;-80
2020/12/01 11:30:08;;;;;;;;;6.75;6.50;;;;;11.32;53.44;98817.28;4966129;28;102459;-80
2020/12/01 11:32:35;;;;;;;;;11.50;11.00;;;;;11.33;53.45;98810.84;4945667;28;104072;-80
2020/12/01 11:35:02;;;;;;;;;12.75;11.50;;;;;11.33;53.36;98803.56;4965431;28;105595;-80
2020/12/01 11:37:29;;;;;;;;;11.00;10.00;;;;;11.34;53.21;98810.66;4938511;28;102574;-80
2020/12/01 11:39:56;;;;;;;;;11.75;10.00;;;;;11.36;53.39;98813.16;4963482;28;102297;-80
2020/12/01 11:42:22;;;;;;;;;12.25;9.75;;;;;11.37;53.27;98815.66;4961159;28;104124;-80
2020/12/01 11:44:49;;;;;;;;;9.25;7.25;;;;;11.37;53.36;98804.84;4958505;28;102177;-80
2020/12/01 11:47:16;;;;;;;;;11.00;10.00;;;;;11.40;53.16;98806.28;4953564;28;102916;-80
2020/12/01 11:49:42;;;;;;;;;11.00;10.00;;;;;11.38;53.18;98802.97;4970057;28;102941;-80
2020/12/01 11:52:09;;;;;;;;;11.25;8.00;;;;;11.42;53.46;98802.38;4959079;28;103408;-80
2020/12/01 11:54:37;;;;;;;;;11.25;8.25;;;;;11.44;53.09;98811.09;4954270;28;102871;-80
2020/12/01 11:57:04;;;;;;;;;9.50;8.25;;;;;11.46;53.37;98800.09;4966776;28;103559;-80
2020/12/01 11:59:31;;;;;;;;;10.75;10.00;;;;;11.49;53.40;98796.97;4968963;28;102626;-80
2020/12/01 12:01:57;;;;;;;;;10.00;8.00;;;;;11.50;53.28;98798.63;4955285;28;106223;-80
2020/12/01 12:04:24;;;;;;;;;8.50;6.00;;;;;11.52;53.26;98797.41;4955293;28;102497;-79
2020/12/01 12:06:51;;;;;;;;;11.00;10.00;;;;;11.55;53.51;98797.00;4945575;28;102542;-80
2020/12/01 12:09:18;;;;;;;;;12.25;9.25;;;;;11.57;53.15;98794.91;4956067;28;102172;-80
2020/12/01 12:11:45;;;;;;;;;9.00;8.25;;;;;11.59;52.96;98795.56;4952629;28;104058;-80
2020/12/01 12:14:11;;;;;;;;;6.00;6.00;;;;;11.62;52.98;98797.84;4961176;28;102431;-80
2020/12/01 12:16:38;;;;;;;;;10.00;8.00;;;;;11.64;53.36;98795.78;4953019;28;102756;-80